createdAt,value
2023-01-17T00:00:23.105Z,98090.13
2023-01-17T00:02:25.337Z,98084.66
2023-01-17T00:04:48.803Z,98091.75
2023-01-17T00:07:09.657Z,98101.19
2023-01-17T00:09:30.856Z,98107.19
2023-01-17T00:11:32.893Z,98106.53
2023-01-17T00:13:34.929Z,98106.75
2023-01-17T00:15:40.015Z,98104.16
2023-01-17T00:17:42.224Z,98099.13
2023-01-17T00:20:02.717Z,98099.94
2023-01-17T00:22:41.738Z,98087.88
2023-01-17T00:25:03.997Z,98080.47
2023-01-17T00:27:15.027Z,98077.03
2023-01-17T00:29:17.046Z,98061.81
2023-01-17T00:31:19.102Z,98065.09
2023-01-17T00:33:22.111Z,98068.66
2023-01-17T00:35:25.137Z,98056.47
2023-01-17T00:37:27.088Z,98054.97
2023-01-17T00:39:29.113Z,98042.91
2023-01-17T00:41:31.098Z,98036.31
2023-01-17T00:43:51.510Z,98034.03
2023-01-17T00:46:12.390Z,98023.88
2023-01-17T00:48:33.133Z,98010.34
2023-01-17T00:50:55.924Z,98007.72
2023-01-17T00:53:16.592Z,98004.31
2023-01-17T00:55:37.261Z,98001.56
2023-01-17T00:57:57.951Z,97997.34
2023-01-17T01:00:18.812Z,97997.47
2023-01-17T01:02:39.601Z,98002.59
2023-01-17T01:05:00.558Z,97992.13
2023-01-17T01:07:21.269Z,97988.59
2023-01-17T01:09:42.099Z,97994.03
2023-01-17T01:12:02.917Z,97991.56
2023-01-17T01:14:24.580Z,97993.59
2023-01-17T01:16:45.342Z,97998.38
2023-01-17T01:19:05.872Z,97993.34
2023-01-17T01:21:26.488Z,97994.72
2023-01-17T01:23:47.177Z,97992.00
2023-01-17T01:26:07.940Z,97989.75
2023-01-17T01:28:31.093Z,97978.81
2023-01-17T01:30:51.479Z,97967.41
2023-01-17T01:33:12.147Z,97966.72
2023-01-17T01:35:14.281Z,97965.13
2023-01-17T01:37:16.304Z,97956.94
2023-01-17T01:39:18.440Z,97959.22
2023-01-17T01:41:20.677Z,97961.13
2023-01-17T01:43:50.513Z,97955.22
2023-01-17T01:45:55.660Z,97948.28
2023-01-17T01:48:06.182Z,97942.81
2023-01-17T01:50:10.700Z,97943.34
2023-01-17T01:52:12.828Z,97935.53
2023-01-17T01:54:22.636Z,97933.59
2023-01-17T01:56:24.717Z,97933.59
2023-01-17T01:58:28.676Z,97933.47
2023-01-17T02:00:34.818Z,97929.63
2023-01-17T02:02:36.885Z,97925.03
2023-01-17T02:04:39.013Z,97915.59
2023-01-17T02:06:50.346Z,97912.53
2023-01-17T02:08:52.374Z,97899.56
2023-01-17T02:10:54.541Z,97893.63
2023-01-17T02:12:56.553Z,97887.72
2023-01-17T02:14:59.105Z,97881.44
2023-01-17T02:17:06.706Z,97873.13
2023-01-17T02:19:30.944Z,97883.53
2023-01-17T02:21:38.920Z,97874.53
2023-01-17T02:24:05.863Z,97872.50
2023-01-17T02:26:44.803Z,97875.22
2023-01-17T02:29:24.280Z,97862.94
2023-01-17T02:31:32.518Z,97851.31
2023-01-17T02:34:01.391Z,97843.72
2023-01-17T02:36:25.605Z,97846.56
2023-01-17T02:38:50.005Z,97839.03
2023-01-17T02:41:11.942Z,97837.44
2023-01-17T02:43:16.362Z,97838.34
2023-01-17T02:45:19.529Z,97835.63
2023-01-17T02:47:27.414Z,97833.59
2023-01-17T02:49:30.453Z,97833.84
2023-01-17T02:51:56.365Z,97824.84
2023-01-17T02:54:28.432Z,97832.69
2023-01-17T02:56:54.605Z,97831.88
2023-01-17T02:59:16.765Z,97831.44
2023-01-17T03:01:39.008Z,97829.50
2023-01-17T03:04:21.739Z,97824.28
2023-01-17T03:06:50.034Z,97825.53
2023-01-17T03:08:52.135Z,97829.28
2023-01-17T03:10:54.290Z,97824.97
2023-01-17T03:12:59.115Z,97818.38
2023-01-17T03:15:01.220Z,97800.84
2023-01-17T03:17:03.381Z,97798.56
2023-01-17T03:19:05.485Z,97791.16
2023-01-17T03:21:07.598Z,97788.88
2023-01-17T03:23:09.693Z,97803.22
2023-01-17T03:25:11.762Z,97794.69
2023-01-17T03:27:13.848Z,97800.84
2023-01-17T03:29:16.707Z,97805.94
2023-01-17T03:31:20.105Z,97800.47
2023-01-17T03:33:22.252Z,97806.75
2023-01-17T03:35:24.270Z,97800.47
2023-01-17T03:37:26.432Z,97805.94
2023-01-17T03:39:28.449Z,97810.59
2023-01-17T03:41:30.483Z,97799.69
2023-01-17T03:43:32.535Z,97791.97
2023-01-17T03:45:35.119Z,97790.78
2023-01-17T03:47:37.198Z,97789.66
2023-01-17T03:49:39.980Z,97793.53
2023-01-17T03:51:42.139Z,97791.97
2023-01-17T03:53:46.908Z,97787.19
2023-01-17T03:55:49.007Z,97782.16
2023-01-17T03:57:51.171Z,97778.75
2023-01-17T03:59:53.203Z,97774.06
2023-01-17T04:01:55.283Z,97763.47
2023-01-17T04:03:57.381Z,97759.19
2023-01-17T04:05:59.435Z,97760.75
2023-01-17T04:08:01.474Z,97765.56
2023-01-17T04:10:03.925Z,97766.31
2023-01-17T04:12:06.120Z,97768.63
2023-01-17T04:14:08.144Z,97766.31
2023-01-17T04:16:13.465Z,97760.53
2023-01-17T04:18:17.016Z,97760.97
2023-01-17T04:20:37.525Z,97756.66
2023-01-17T04:22:39.639Z,97747.66
2023-01-17T04:24:41.716Z,97742.63
2023-01-17T04:26:43.745Z,97740.69
2023-01-17T04:28:45.820Z,97732.16
2023-01-17T04:30:47.929Z,97737.28
2023-01-17T04:32:50.273Z,97745.81
2023-01-17T04:34:52.429Z,97734.09
2023-01-17T04:36:54.571Z,97747.31
2023-01-17T04:38:56.571Z,97750.03
2023-01-17T04:40:58.703Z,97766.88
2023-01-17T04:43:00.820Z,97764.22
2023-01-17T04:45:03.162Z,97760.03
2023-01-17T04:47:05.384Z,97754.09
2023-01-17T04:49:07.440Z,97750.56
2023-01-17T04:51:09.527Z,97753.41
2023-01-17T04:53:11.581Z,97757.72
2023-01-17T04:55:13.665Z,97755.00
2023-01-17T04:57:19.145Z,97756.50
2023-01-17T04:59:21.670Z,97752.97
2023-01-17T05:01:23.893Z,97753.75
2023-01-17T05:03:25.992Z,97754.56
2023-01-17T05:05:28.026Z,97747.59
2023-01-17T05:07:30.043Z,97765.22
2023-01-17T05:09:32.124Z,97773.78
2023-01-17T05:11:34.220Z,97764.09
2023-01-17T05:13:36.263Z,97761.59
2023-01-17T05:15:38.435Z,97756.13
2023-01-17T05:17:40.523Z,97760.38
2023-01-17T05:19:42.527Z,97764.94
2023-01-17T05:21:44.562Z,97760.63
2023-01-17T05:23:46.948Z,97766.41
2023-01-17T05:25:48.956Z,97757.09
2023-01-17T05:27:51.057Z,97748.47
2023-01-17T05:29:53.177Z,97764.06
2023-01-17T05:31:55.133Z,97759.38
2023-01-17T05:33:57.204Z,97759.63
2023-01-17T05:35:59.431Z,97763.16
2023-01-17T05:38:01.533Z,97767.81
2023-01-17T05:40:03.820Z,97759.19
2023-01-17T05:42:05.917Z,97754.06
2023-01-17T05:44:07.995Z,97760.69
2023-01-17T05:46:10.037Z,97761.44
2023-01-17T05:48:12.167Z,97755.22
2023-01-17T05:50:34.472Z,97755.56
2023-01-17T05:52:36.462Z,97753.06
2023-01-17T05:54:38.519Z,97751.59
2023-01-17T05:56:40.534Z,97753.50
2023-01-17T05:58:42.567Z,97756.69
2023-01-17T06:00:44.955Z,97763.53
2023-01-17T06:02:47.131Z,97757.38
2023-01-17T06:04:49.210Z,97759.66
2023-01-17T06:06:51.352Z,97751.47
2023-01-17T06:08:53.433Z,97758.63
2023-01-17T06:10:55.578Z,97759.78
2023-01-17T06:13:07.521Z,97758.97
2023-01-17T06:15:10.109Z,97758.88
2023-01-17T06:17:12.044Z,97764.69
2023-01-17T06:19:14.086Z,97771.63
2023-01-17T06:21:16.132Z,97769.94
2023-01-17T06:23:18.248Z,97765.72
2023-01-17T06:25:20.378Z,97762.28
2023-01-17T06:27:22.474Z,97769.25
2023-01-17T06:29:24.601Z,97767.66
2023-01-17T06:31:26.799Z,97762.19
2023-01-17T06:33:28.864Z,97759.03
2023-01-17T06:35:31.176Z,97764.91
2023-01-17T06:37:33.365Z,97769.94
2023-01-17T06:39:35.432Z,97761.75
2023-01-17T06:41:37.431Z,97764.03
2023-01-17T06:43:40.115Z,97764.47
2023-01-17T06:45:42.144Z,97772.56
2023-01-17T06:47:44.271Z,97773.69
2023-01-17T06:49:46.414Z,97776.91
2023-01-17T06:51:48.428Z,97770.97
2023-01-17T06:53:50.490Z,97772.56
2023-01-17T06:55:56.138Z,97775.19
2023-01-17T06:57:59.653Z,97780.31
2023-01-17T07:00:02.179Z,97780.22
2023-01-17T07:02:04.292Z,97778.59
2023-01-17T07:04:06.546Z,97776.25
2023-01-17T07:06:09.642Z,97783.50
2023-01-17T07:08:11.807Z,97790.56
2023-01-17T07:10:14.414Z,97784.66
2023-01-17T07:12:16.328Z,97787.63
2023-01-17T07:14:18.456Z,97785.22
2023-01-17T07:16:20.678Z,97791.03
2023-01-17T07:18:25.705Z,97789.81
2023-01-17T07:20:27.873Z,97795.25
2023-01-17T07:22:30.029Z,97794.09
2023-01-17T07:24:33.044Z,97797.41
2023-01-17T07:26:37.830Z,97794.00
2023-01-17T07:28:39.897Z,97797.88
2023-01-17T07:30:41.945Z,97795.16
2023-01-17T07:32:44.054Z,97798.91
2023-01-17T07:34:46.082Z,97794.34
2023-01-17T07:36:49.782Z,97794.25
2023-01-17T07:38:51.900Z,97795.69
2023-01-17T07:40:58.199Z,97793.53
2023-01-17T07:43:03.627Z,97788.09
2023-01-17T07:45:06.812Z,97794.09
2023-01-17T07:47:08.839Z,97792.53
2023-01-17T07:49:10.939Z,97787.63
2023-01-17T07:51:13.126Z,97783.28
2023-01-17T07:53:15.280Z,97789.19
2023-01-17T07:55:17.724Z,97797.38
2023-01-17T07:57:19.944Z,97792.84
2023-01-17T07:59:22.017Z,97794.88
2023-01-17T08:01:24.291Z,97802.84
2023-01-17T08:03:32.408Z,97799.75
2023-01-17T08:05:34.606Z,97807.16
2023-01-17T08:07:36.773Z,97798.63
2023-01-17T08:09:38.803Z,97805.56
2023-01-17T08:11:40.868Z,97814.31
2023-01-17T08:13:43.138Z,97805.31
2023-01-17T08:15:47.626Z,97814.44
2023-01-17T08:17:53.369Z,97817.50
2023-01-17T08:19:55.450Z,97820.78
2023-01-17T08:21:57.560Z,97823.16
2023-01-17T08:23:59.721Z,97829.66
2023-01-17T08:26:01.953Z,97818.41
2023-01-17T08:28:05.393Z,97826.69
2023-01-17T08:30:08.591Z,97827.84
2023-01-17T08:32:10.621Z,97831.38
2023-01-17T08:34:14.246Z,97834.78
2023-01-17T08:36:16.396Z,97834.78
2023-01-17T08:38:18.734Z,97833.66
2023-01-17T08:40:20.817Z,97844.91
2023-01-17T08:42:22.844Z,97826.59
2023-01-17T08:44:25.035Z,97842.28
2023-01-17T08:46:27.105Z,97829.66
2023-01-17T08:48:29.128Z,97833.97
2023-01-17T08:50:31.171Z,97839.13
2023-01-17T08:52:33.604Z,97836.72
2023-01-17T08:54:35.654Z,97830.22
2023-01-17T08:56:37.719Z,97832.16
2023-01-17T08:58:41.488Z,97843.19
2023-01-17T09:00:43.620Z,97843.19
2023-01-17T09:02:45.675Z,97857.19
2023-01-17T09:04:48.951Z,97853.31
2023-01-17T09:06:50.962Z,97859.91
2023-01-17T09:08:54.905Z,97868.22
2023-01-17T09:10:56.947Z,97853.44
2023-01-17T09:12:58.945Z,97849.22
2023-01-17T09:15:02.439Z,97844.44
2023-01-17T09:17:06.884Z,97846.13
2023-01-17T09:19:09.533Z,97848.53
2023-01-17T09:21:16.387Z,97841.94
2023-01-17T09:23:18.508Z,97846.22
2023-01-17T09:25:20.535Z,97854.09
2023-01-17T09:27:22.566Z,97861.94
2023-01-17T09:29:24.722Z,97863.19
2023-01-17T09:31:27.302Z,97880.03
2023-01-17T09:33:29.373Z,97871.03
2023-01-17T09:35:31.763Z,97862.59
2023-01-17T09:37:33.840Z,97858.72
2023-01-17T09:39:35.932Z,97855.28
2023-01-17T09:42:11.033Z,97854.16
2023-01-17T09:44:33.661Z,97855.41
2023-01-17T09:46:45.102Z,97857.44
2023-01-17T09:48:47.129Z,97870.06
2023-01-17T09:50:54.893Z,97866.66
2023-01-17T09:53:07.211Z,97864.03
2023-01-17T09:55:14.790Z,97869.56
2023-01-17T09:57:58.026Z,97866.59
2023-01-17T10:00:34.154Z,97863.59
2023-01-17T10:03:01.388Z,97876.25
2023-01-17T10:05:34.519Z,97884.88
2023-01-17T10:08:16.546Z,97886.69
2023-01-17T10:10:42.442Z,97885.44
2023-01-17T10:13:05.086Z,97900.09
2023-01-17T10:15:57.030Z,97885.03
2023-01-17T10:18:29.905Z,97891.59
2023-01-17T10:20:53.989Z,97886.66
2023-01-17T10:23:12.694Z,97891.44
2023-01-17T10:25:52.585Z,97879.91
2023-01-17T10:27:58.452Z,97887.41
2023-01-17T10:30:03.029Z,97887.66
2023-01-17T10:32:05.512Z,97886.19
2023-01-17T10:34:19.773Z,97884.41
2023-01-17T10:36:38.016Z,97888.94
2023-01-17T10:38:42.024Z,97884.31
2023-01-17T10:40:54.926Z,97869.84
2023-01-17T10:42:59.954Z,97875.22
2023-01-17T10:45:18.696Z,97894.31
2023-01-17T10:47:23.087Z,97887.75
2023-01-17T10:49:26.347Z,97887.03
2023-01-17T10:52:00.182Z,97876.97
2023-01-17T10:54:36.082Z,97869.97
2023-01-17T10:56:38.165Z,97883.34
2023-01-17T10:58:40.257Z,97868.94
2023-01-17T11:01:00.147Z,97895.94
2023-01-17T11:03:02.328Z,97881.75
2023-01-17T11:05:15.981Z,97875.47
2023-01-17T11:07:24.100Z,97879.50
2023-01-17T11:09:42.093Z,97878.13
2023-01-17T11:11:50.410Z,97874.66
2023-01-17T11:13:53.645Z,97889.50
2023-01-17T11:16:07.835Z,97880.91
2023-01-17T11:18:16.474Z,97865.72
2023-01-17T11:20:38.853Z,97891.88
2023-01-17T11:22:43.354Z,97877.41
2023-01-17T11:24:53.338Z,97883.22
2023-01-17T11:26:55.395Z,97879.84
2023-01-17T11:29:35.894Z,97878.44
2023-01-17T11:31:38.809Z,97892.56
2023-01-17T11:33:49.204Z,97882.47
2023-01-17T11:35:51.227Z,97868.50
2023-01-17T11:38:20.161Z,97894.03
2023-01-17T11:40:41.294Z,97874.66
2023-01-17T11:42:43.437Z,97874.78
2023-01-17T11:44:45.445Z,97882.94
2023-01-17T11:46:47.605Z,97862.44
2023-01-17T11:48:56.357Z,97869.91
2023-01-17T11:50:59.393Z,97878.03
2023-01-17T11:53:18.081Z,97886.69
2023-01-17T11:55:23.054Z,97883.16
2023-01-17T11:57:31.105Z,97885.88
2023-01-17T11:59:40.344Z,97886.69
2023-01-17T12:01:57.623Z,97890.56
2023-01-17T12:04:41.049Z,97912.41
2023-01-17T12:07:06.748Z,97910.06
2023-01-17T12:09:23.049Z,97906.88
2023-01-17T12:12:42.133Z,97914.00
2023-01-17T12:14:57.023Z,97903.84
2023-01-17T12:17:45.547Z,97897.66
2023-01-17T12:20:01.326Z,97891.03
2023-01-17T12:22:34.052Z,97886.69
2023-01-17T12:24:39.552Z,97914.09
2023-01-17T12:27:12.793Z,97899.69
2023-01-17T12:29:45.587Z,97918.06
2023-01-17T12:32:03.046Z,97900.91
2023-01-17T12:34:30.086Z,97915.41
2023-01-17T12:36:48.412Z,97911.06
2023-01-17T12:38:50.588Z,97927.16
2023-01-17T12:41:23.494Z,97916.91
2023-01-17T12:43:42.177Z,97920.53
2023-01-17T12:45:45.825Z,97926.03
2023-01-17T12:47:52.023Z,97924.50
2023-01-17T12:50:20.295Z,97930.94
2023-01-17T12:52:46.196Z,97927.00
2023-01-17T12:54:52.400Z,97927.41
2023-01-17T12:57:14.913Z,97930.91
2023-01-17T12:59:26.369Z,97939.91
2023-01-17T13:01:43.094Z,97934.84
2023-01-17T13:04:00.354Z,97941.88
2023-01-17T13:06:02.837Z,97927.88
2023-01-17T13:08:36.674Z,97942.75
2023-01-17T13:10:51.173Z,97950.03
2023-01-17T13:12:54.716Z,97953.84
2023-01-17T13:14:56.779Z,97967.50
2023-01-17T13:17:42.789Z,97929.38
2023-01-17T13:19:54.848Z,97949.34
2023-01-17T13:21:56.951Z,97955.56
2023-01-17T13:24:02.231Z,97958.69
2023-01-17T13:26:04.596Z,97963.88
2023-01-17T13:28:56.986Z,97959.03
2023-01-17T13:31:18.485Z,97976.66
2023-01-17T13:33:27.060Z,97993.38
2023-01-17T13:36:07.128Z,97983.56
2023-01-17T13:38:39.742Z,97996.41
2023-01-17T13:40:55.847Z,97994.78
2023-01-17T13:43:02.709Z,97998.72
2023-01-17T13:45:49.684Z,97996.41
2023-01-17T13:47:52.965Z,97989.69
2023-01-17T13:49:56.830Z,97981.88
2023-01-17T13:52:10.994Z,97988.09
2023-01-17T13:54:32.919Z,97989.22
2023-01-17T13:56:35.337Z,97989.69
2023-01-17T13:58:54.982Z,98009.69
2023-01-17T14:00:57.112Z,98005.25
2023-01-17T14:02:59.194Z,97999.06
2023-01-17T14:05:23.422Z,97999.06
2023-01-17T14:07:26.366Z,98011.88
2023-01-17T14:09:37.838Z,98010.38
2023-01-17T14:12:00.260Z,98014.28
2023-01-17T14:14:39.600Z,98025.94
2023-01-17T14:16:41.681Z,98028.69
2023-01-17T14:18:43.853Z,98026.75
2023-01-17T14:20:49.184Z,98040.81
2023-01-17T14:22:51.953Z,98030.28
2023-01-17T14:25:09.964Z,98035.75
2023-01-17T14:27:16.789Z,98046.38
2023-01-17T14:29:48.692Z,98039.19
2023-01-17T14:31:51.524Z,98055.22
2023-01-17T14:33:54.288Z,98064.59
2023-01-17T14:36:03.355Z,98052.75
2023-01-17T14:38:29.512Z,98061.06
2023-01-17T14:40:36.005Z,98062.56
2023-01-17T14:42:38.026Z,98058.25
2023-01-17T14:44:40.047Z,98072.75
2023-01-17T14:46:42.056Z,98072.75
2023-01-17T14:48:44.252Z,98069.22
2023-01-17T14:50:48.650Z,98069.63
2023-01-17T14:53:15.713Z,98088.41
2023-01-17T14:55:19.457Z,98081.75
2023-01-17T14:57:29.279Z,98104.03
2023-01-17T14:59:31.365Z,98098.19
2023-01-17T15:01:33.696Z,98103.69
2023-01-17T15:05:53.347Z,98111.03
2023-01-17T15:07:56.729Z,98113.41
2023-01-17T15:09:58.754Z,98115.34
2023-01-17T15:12:00.871Z,98112.19
2023-01-17T15:14:05.947Z,98106.69
2023-01-17T15:16:17.827Z,98113.78
2023-01-17T15:18:26.869Z,98120.84
2023-01-17T15:20:29.005Z,98120.84
2023-01-17T15:22:31.041Z,98120.03
2023-01-17T15:24:34.624Z,98121.63
2023-01-17T15:26:44.735Z,98122.78
2023-01-17T15:28:47.102Z,98128.25
2023-01-17T15:31:15.488Z,98128.63
2023-01-17T15:33:21.183Z,98122.72
2023-01-17T15:35:23.683Z,98128.97
2023-01-17T15:37:39.895Z,98137.56
2023-01-17T15:39:42.005Z,98142.59
2023-01-17T15:41:44.063Z,98147.28
2023-01-17T15:43:46.159Z,98144.88
2023-01-17T15:45:58.637Z,98152.75
2023-01-17T15:48:40.631Z,98162.03
2023-01-17T15:50:42.702Z,98177.66
2023-01-17T15:52:52.038Z,98165.56
2023-01-17T15:55:12.556Z,98170.16
2023-01-17T15:57:24.607Z,98181.91
2023-01-17T16:00:06.143Z,98187.75
2023-01-17T16:02:25.973Z,98206.47
2023-01-17T16:04:34.899Z,98187.19
2023-01-17T16:06:45.782Z,98193.03
2023-01-17T16:08:52.579Z,98203.19
2023-01-17T16:10:58.615Z,98195.31
2023-01-17T16:13:00.708Z,98204.00
2023-01-17T16:15:12.519Z,98207.44
2023-01-17T16:17:16.712Z,98197.97
2023-01-17T16:19:18.902Z,98200.00
2023-01-17T16:21:27.345Z,98201.16
2023-01-17T16:23:29.412Z,98206.63
2023-01-17T16:25:37.457Z,98214.41
2023-01-17T16:27:41.515Z,98210.41
2023-01-17T16:29:43.556Z,98218.63
2023-01-17T16:31:45.590Z,98220.94
2023-01-17T16:33:49.742Z,98225.50
2023-01-17T16:35:53.908Z,98221.19
2023-01-17T16:38:02.234Z,98231.56
2023-01-17T16:40:04.885Z,98253.59
2023-01-17T16:42:11.353Z,98233.53
2023-01-17T16:44:13.577Z,98231.56
2023-01-17T16:46:15.728Z,98253.47
2023-01-17T16:48:19.349Z,98242.19
2023-01-17T16:50:24.483Z,98244.13
2023-01-17T16:52:26.622Z,98253.03
2023-01-17T16:54:28.646Z,98264.00
2023-01-17T16:56:30.697Z,98250.31
2023-01-17T16:58:32.787Z,98244.38
2023-01-17T17:00:34.806Z,98246.22
2023-01-17T17:02:38.668Z,98247.81
2023-01-17T17:04:41.948Z,98248.16
2023-01-17T17:06:43.964Z,98259.00
2023-01-17T17:08:46.051Z,98253.41
2023-01-17T17:10:48.114Z,98255.38
2023-01-17T17:12:50.201Z,98257.63
2023-01-17T17:14:52.226Z,98250.13
2023-01-17T17:16:54.380Z,98275.34
2023-01-17T17:19:04.762Z,98246.25
2023-01-17T17:21:06.912Z,98247.72
2023-01-17T17:23:10.191Z,98253.13
2023-01-17T17:25:12.429Z,98252.19
2023-01-17T17:27:14.461Z,98262.22
2023-01-17T17:29:16.603Z,98256.66
2023-01-17T17:31:18.724Z,98257.22
2023-01-17T17:37:05.555Z,98250.16
2023-01-17T17:39:09.367Z,98249.56
2023-01-17T17:41:11.465Z,98261.22
2023-01-17T17:43:13.986Z,98253.25
2023-01-17T17:45:16.305Z,98255.50
2023-01-17T17:47:18.364Z,98255.41
2023-01-17T17:49:22.762Z,98254.94
2023-01-17T17:51:35.195Z,98267.34
2023-01-17T17:53:37.315Z,98265.84
2023-01-17T17:55:41.065Z,98272.00
2023-01-17T17:57:43.219Z,98277.84
2023-01-17T17:59:45.381Z,98267.22
2023-01-17T18:01:48.087Z,98263.09
2023-01-17T18:03:51.271Z,98269.56
2023-01-17T18:05:53.460Z,98257.75
2023-01-17T18:07:56.085Z,98269.81
2023-01-17T18:12:00.579Z,98273.88
2023-01-17T18:14:03.872Z,98271.03
2023-01-17T18:16:14.753Z,98265.88
2023-01-17T18:18:17.312Z,98258.72
2023-01-17T18:20:20.255Z,98260.50
2023-01-17T18:22:22.295Z,98262.66
2023-01-17T18:24:25.113Z,98274.41
2023-01-17T18:26:32.704Z,98273.59
2023-01-17T18:28:34.860Z,98275.88
2023-01-17T18:30:38.576Z,98281.22
2023-01-17T18:32:41.946Z,98286.69
2023-01-17T18:34:45.095Z,98288.03
2023-01-17T18:36:47.666Z,98294.16
2023-01-17T18:38:49.873Z,98306.88
2023-01-17T18:40:51.903Z,98312.81
2023-01-17T18:42:54.403Z,98313.00
2023-01-17T18:44:56.597Z,98315.25
2023-01-17T18:47:02.095Z,98320.28
2023-01-17T18:49:04.771Z,98331.41
2023-01-17T18:51:08.727Z,98338.34
2023-01-17T18:53:11.531Z,98337.06
2023-01-17T18:55:13.665Z,98350.38
2023-01-17T18:57:15.852Z,98346.44
2023-01-17T18:59:23.602Z,98354.16
2023-01-17T19:01:28.704Z,98355.81
2023-01-17T19:03:31.610Z,98357.28
2023-01-17T19:05:36.241Z,98349.88
2023-01-17T19:07:38.233Z,98354.09
2023-01-17T19:09:40.359Z,98375.19
2023-01-17T19:11:44.580Z,98377.09
2023-01-17T19:13:46.704Z,98372.97
2023-01-17T19:15:48.756Z,98378.13
2023-01-17T19:17:50.751Z,98384.09
2023-01-17T19:19:52.798Z,98387.81
2023-01-17T19:21:54.928Z,98391.22
2023-01-17T19:23:57.702Z,98399.91
2023-01-17T19:25:59.737Z,98388.50
2023-01-17T19:28:01.894Z,98400.88
2023-01-17T19:30:04.420Z,98401.53
2023-01-17T19:32:07.463Z,98404.09
2023-01-17T19:34:09.970Z,98406.50
2023-01-17T19:36:17.060Z,98407.16
2023-01-17T19:38:19.077Z,98410.69
2023-01-17T19:40:21.264Z,98410.22
2023-01-17T19:42:23.385Z,98417.59
2023-01-17T19:44:25.506Z,98412.81
2023-01-17T19:46:28.553Z,98425.16
2023-01-17T19:48:30.799Z,98428.53
2023-01-17T19:50:33.125Z,98429.34
2023-01-17T19:52:35.851Z,98430.31
2023-01-17T19:54:37.789Z,98438.66
2023-01-17T19:56:40.017Z,98449.41
2023-01-17T19:58:42.442Z,98454.22
2023-01-17T20:00:46.793Z,98458.06
2023-01-17T20:02:49.037Z,98445.72
2023-01-17T20:04:51.258Z,98454.22
2023-01-17T20:06:53.613Z,98455.19
2023-01-17T20:08:55.713Z,98456.94
2023-01-17T20:11:05.483Z,98455.19
2023-01-17T20:13:07.558Z,98452.31
2023-01-17T20:15:10.007Z,98448.78
2023-01-17T20:17:12.304Z,98446.06
2023-01-17T20:19:14.384Z,98457.75
2023-01-17T20:21:24.973Z,98464.50
2023-01-17T20:23:27.054Z,98460.50
2023-01-17T20:25:33.478Z,98467.38
2023-01-17T20:27:36.648Z,98464.97
2023-01-17T20:29:40.759Z,98464.47
2023-01-17T20:31:43.303Z,98465.44
2023-01-17T20:33:47.402Z,98467.38
2023-01-17T20:35:55.573Z,98466.09
2023-01-17T20:38:10.480Z,98460.13
2023-01-17T20:40:12.963Z,98466.56
2023-01-17T20:42:15.102Z,98463.84
2023-01-17T20:44:19.770Z,98461.75
2023-01-17T20:46:24.321Z,98460.78
2023-01-17T20:48:26.611Z,98469.44
2023-01-17T20:54:26.976Z,98475.19
2023-01-17T20:56:34.748Z,98484.47
2023-01-17T20:58:38.778Z,98483.19
2023-01-17T21:00:41.335Z,98480.13
2023-01-17T21:02:43.738Z,98484.63
2023-01-17T21:04:46.075Z,98493.44
2023-01-17T21:06:51.667Z,98486.84
2023-01-17T21:08:53.776Z,98487.13
2023-01-17T21:10:55.932Z,98487.00
2023-01-17T21:13:00.922Z,98482.47
2023-01-17T21:15:03.043Z,98486.81
2023-01-17T21:17:05.156Z,98497.34
2023-01-17T21:19:12.022Z,98495.09
2023-01-17T21:21:22.020Z,98499.38
2023-01-17T21:23:29.333Z,98502.25
2023-01-17T21:25:32.790Z,98496.63
2023-01-17T21:27:36.667Z,98502.88
2023-01-17T21:29:39.038Z,98498.91
2023-01-17T21:31:42.910Z,98483.03
2023-01-17T21:33:45.353Z,98486.28
2023-01-17T21:35:47.743Z,98484.47
2023-01-17T21:37:50.395Z,98491.22
2023-01-17T21:39:55.001Z,98484.00
2023-01-17T21:42:05.517Z,98489.75
2023-01-17T21:44:13.419Z,98501.75
2023-01-17T21:59:00.993Z,98504.16
2023-01-17T22:03:37.245Z,98520.75
2023-01-17T22:06:05.044Z,98541.63
2023-01-17T22:11:37.730Z,98544.59
2023-01-17T23:02:50.304Z,98551.63
2023-01-17T23:12:56.038Z,98534.47
2023-01-17T23:18:18.137Z,98516.53
2023-01-17T23:22:44.396Z,98530.06
2023-01-17T23:25:28.038Z,98535.63
2023-01-17T23:28:21.595Z,98543.56
